createdAt,value
2023-03-01T00:01:34.691Z,101639.52
2023-03-01T00:04:02.531Z,101638.35
2023-03-01T00:06:30.961Z,101636.96
2023-03-01T00:08:59.170Z,101635.13
2023-03-01T00:11:29.476Z,101641.40
2023-03-01T00:14:00.313Z,101645.02
2023-03-01T00:16:32.546Z,101640.51
2023-03-01T00:19:00.771Z,101643.45
2023-03-01T00:21:28.703Z,101642.80
2023-03-01T00:23:56.929Z,101639.33
2023-03-01T00:26:26.274Z,101640.75
2023-03-01T00:28:56.437Z,101637.23
2023-03-01T00:31:26.534Z,101640.81
2023-03-01T00:33:58.843Z,101640.02
2023-03-01T00:36:29.848Z,101633.95
2023-03-01T00:38:58.556Z,101627.80
2023-03-01T00:41:27.821Z,101622.44
2023-03-01T00:43:56.615Z,101616.81
2023-03-01T00:46:27.381Z,101613.31
2023-03-01T00:48:55.210Z,101611.67
2023-03-01T00:51:26.381Z,101606.66
2023-03-01T00:53:55.916Z,101607.06
2023-03-01T00:56:24.434Z,101605.73
2023-03-01T00:58:52.332Z,101601.04
2023-03-01T01:01:23.020Z,101600.42
2023-03-01T01:04:11.253Z,101603.70
2023-03-01T01:06:43.435Z,101608.58
2023-03-01T01:09:18.112Z,101604.46
2023-03-01T01:11:48.337Z,101599.79
2023-03-01T01:14:17.315Z,101596.54
2023-03-01T01:16:45.172Z,101590.13
2023-03-01T01:19:14.336Z,101592.35
2023-03-01T01:21:44.262Z,101586.80
2023-03-01T01:24:13.135Z,101583.94
2023-03-01T01:26:41.649Z,101584.41
2023-03-01T01:29:09.876Z,101585.87
2023-03-01T01:31:39.113Z,101578.02
2023-03-01T01:34:09.046Z,101576.80
2023-03-01T01:36:37.372Z,101577.88
2023-03-01T01:39:05.371Z,101574.38
2023-03-01T01:41:33.272Z,101567.23
2023-03-01T01:44:27.084Z,101566.88
2023-03-01T01:47:00.822Z,101566.87
2023-03-01T01:49:36.910Z,101563.11
2023-03-01T01:52:12.674Z,101566.52
2023-03-01T01:55:08.235Z,101561.98
2023-03-01T01:57:43.022Z,101556.94
2023-03-01T02:00:28.711Z,101557.71
2023-03-01T02:03:00.884Z,101556.27
2023-03-01T02:05:38.177Z,101557.28
2023-03-01T02:08:06.556Z,101553.68
2023-03-01T02:10:35.792Z,101548.08
2023-03-01T02:13:04.307Z,101547.23
2023-03-01T02:15:37.192Z,101548.77
2023-03-01T02:18:05.813Z,101552.96
2023-03-01T02:21:18.799Z,101550.98
2023-03-01T02:23:46.803Z,101552.46
2023-03-01T02:26:17.488Z,101547.98
2023-03-01T02:28:46.142Z,101546.36
2023-03-01T02:31:46.410Z,101547.41
2023-03-01T02:34:20.815Z,101556.34
2023-03-01T02:36:58.496Z,101558.90
2023-03-01T02:39:42.847Z,101558.59
2023-03-01T02:42:13.706Z,101562.30
2023-03-01T02:44:41.486Z,101558.64
2023-03-01T02:47:09.226Z,101555.88
2023-03-01T02:49:38.444Z,101556.53
2023-03-01T02:52:34.276Z,101555.98
2023-03-01T02:55:05.981Z,101558.48
2023-03-01T02:57:35.840Z,101560.34
2023-03-01T03:00:10.493Z,101549.40
2023-03-01T03:02:38.772Z,101550.11
2023-03-01T03:05:12.003Z,101557.52
2023-03-01T03:07:42.397Z,101561.31
2023-03-01T03:10:20.474Z,101563.30
2023-03-01T03:13:12.753Z,101566.95
2023-03-01T03:15:41.496Z,101566.24
2023-03-01T03:18:12.764Z,101564.64
2023-03-01T03:20:42.197Z,101560.68
2023-03-01T03:23:10.590Z,101557.80
2023-03-01T03:25:38.846Z,101554.48
2023-03-01T03:28:10.999Z,101550.85
2023-03-01T03:30:40.774Z,101547.41
2023-03-01T03:33:10.664Z,101542.05
2023-03-01T03:35:45.804Z,101537.41
2023-03-01T03:38:18.453Z,101536.48
2023-03-01T03:41:03.511Z,101539.19
2023-03-01T03:43:33.830Z,101536.77
2023-03-01T03:46:01.876Z,101532.25
2023-03-01T03:48:29.620Z,101532.38
2023-03-01T03:50:57.725Z,101528.30
2023-03-01T03:53:27.318Z,101524.98
2023-03-01T03:55:55.135Z,101524.39
2023-03-01T03:58:24.410Z,101522.02
2023-03-01T04:00:54.633Z,101525.18
2023-03-01T04:03:23.323Z,101527.35
2023-03-01T04:05:51.799Z,101522.50
2023-03-01T04:08:23.818Z,101519.86
2023-03-01T04:10:54.179Z,101524.95
2023-03-01T04:13:23.409Z,101525.48
2023-03-01T04:15:55.436Z,101522.42
2023-03-01T04:18:24.819Z,101516.71
2023-03-01T04:20:56.217Z,101517.40
2023-03-01T04:23:24.316Z,101519.52
2023-03-01T04:25:59.793Z,101517.40
2023-03-01T04:28:36.955Z,101518.70
2023-03-01T04:31:18.426Z,101513.87
2023-03-01T04:33:55.721Z,101513.49
2023-03-01T04:36:26.661Z,101508.57
2023-03-01T04:38:55.750Z,101506.36
2023-03-01T04:41:25.732Z,101509.85
2023-03-01T04:43:53.801Z,101511.10
2023-03-01T04:46:22.713Z,101514.84
2023-03-01T04:48:51.054Z,101513.69
2023-03-01T04:51:19.496Z,101517.69
2023-03-01T04:53:47.405Z,101518.30
2023-03-01T04:56:16.466Z,101520.59
2023-03-01T04:58:44.986Z,101518.96
2023-03-01T05:01:17.925Z,101518.02
2023-03-01T05:03:50.511Z,101518.45
2023-03-01T05:06:22.368Z,101513.59
2023-03-01T05:08:50.478Z,101511.66
2023-03-01T05:11:18.894Z,101514.48
2023-03-01T05:13:46.776Z,101514.89
2023-03-01T05:16:14.981Z,101513.28
2023-03-01T05:18:43.693Z,101517.73
2023-03-01T05:21:13.968Z,101515.59
2023-03-01T05:23:41.989Z,101522.55
2023-03-01T05:26:25.921Z,101520.70
2023-03-01T05:29:00.526Z,101516.41
2023-03-01T05:31:29.225Z,101513.75
2023-03-01T05:33:57.082Z,101513.85
2023-03-01T05:36:25.211Z,101514.85
2023-03-01T05:38:53.109Z,101515.27
2023-03-01T05:41:21.044Z,101515.86
2023-03-01T05:43:48.832Z,101516.20
2023-03-01T05:46:17.864Z,101518.95
2023-03-01T05:48:45.726Z,101523.06
2023-03-01T05:51:15.480Z,101519.31
2023-03-01T05:53:46.927Z,101517.67
2023-03-01T05:56:16.949Z,101523.66
2023-03-01T05:58:44.919Z,101523.79
2023-03-01T06:01:15.551Z,101522.23
2023-03-01T06:03:43.935Z,101526.33
2023-03-01T06:06:11.896Z,101517.80
2023-03-01T06:08:39.716Z,101520.16
2023-03-01T06:11:08.689Z,101516.28
2023-03-01T06:13:37.162Z,101522.03
2023-03-01T06:16:07.479Z,101523.71
2023-03-01T06:18:36.500Z,101521.71
2023-03-01T06:21:06.238Z,101526.31
2023-03-01T06:23:34.858Z,101522.81
2023-03-01T06:26:07.188Z,101522.09
2023-03-01T06:28:35.063Z,101522.54
2023-03-01T06:31:03.065Z,101516.20
2023-03-01T06:33:31.360Z,101511.15
2023-03-01T06:35:59.212Z,101510.48
2023-03-01T06:38:27.189Z,101503.00
2023-03-01T06:40:56.272Z,101500.17
2023-03-01T06:43:24.690Z,101502.07
2023-03-01T06:45:52.750Z,101501.73
2023-03-01T06:48:20.775Z,101507.13
2023-03-01T06:50:48.722Z,101507.92
2023-03-01T06:53:17.350Z,101503.48
2023-03-01T06:55:45.203Z,101500.55
2023-03-01T06:58:14.275Z,101504.29
2023-03-01T07:00:43.391Z,101505.22
2023-03-01T07:03:11.259Z,101505.08
2023-03-01T07:06:44.017Z,101505.23
2023-03-01T07:09:11.794Z,101503.12
2023-03-01T07:11:39.540Z,101501.45
2023-03-01T07:14:07.992Z,101499.73
2023-03-01T07:16:36.091Z,101501.46
2023-03-01T07:19:04.270Z,101503.57
2023-03-01T07:21:32.304Z,101508.22
2023-03-01T07:24:00.149Z,101508.46
2023-03-01T07:26:27.862Z,101505.60
2023-03-01T07:28:55.547Z,101505.66
2023-03-01T07:31:23.289Z,101508.40
2023-03-01T07:33:51.153Z,101518.16
2023-03-01T07:36:18.924Z,101520.20
2023-03-01T07:38:46.897Z,101521.56
2023-03-01T07:41:15.232Z,101521.23
2023-03-01T07:43:43.350Z,101520.31
2023-03-01T07:46:11.354Z,101518.92
2023-03-01T07:48:39.397Z,101514.64
2023-03-01T07:51:08.187Z,101511.06
2023-03-01T07:53:36.407Z,101507.95
2023-03-01T07:56:08.052Z,101501.46
2023-03-01T07:58:37.612Z,101492.00
2023-03-01T08:01:07.427Z,101490.48
2023-03-01T08:03:35.932Z,101488.08
2023-03-01T08:06:05.793Z,101487.45
2023-03-01T08:08:34.479Z,101488.30
2023-03-01T08:11:03.823Z,101488.05
2023-03-01T08:13:31.963Z,101487.95
2023-03-01T08:16:05.504Z,101485.92
2023-03-01T08:18:33.959Z,101485.05
2023-03-01T08:21:06.945Z,101487.87
2023-03-01T08:23:34.788Z,101484.25
2023-03-01T08:26:21.925Z,101483.56
2023-03-01T08:28:50.643Z,101479.81
2023-03-01T08:31:22.574Z,101481.90
2023-03-01T08:33:56.220Z,101475.11
2023-03-01T08:36:33.538Z,101477.23
2023-03-01T08:39:01.966Z,101479.88
2023-03-01T08:41:30.143Z,101484.91
2023-03-01T08:44:00.887Z,101484.16
2023-03-01T08:46:30.827Z,101483.11
2023-03-01T08:48:59.070Z,101485.23
2023-03-01T08:51:27.498Z,101489.55
2023-03-01T08:53:55.305Z,101490.08
2023-03-01T08:56:23.097Z,101491.50
2023-03-01T08:58:50.855Z,101489.98
2023-03-01T14:02:37.729Z,101242.44
2023-03-01T14:05:10.430Z,101240.66
2023-03-01T14:07:42.422Z,101237.34
2023-03-01T14:10:13.593Z,101230.05
2023-03-01T14:12:50.603Z,101228.96
2023-03-01T14:15:33.176Z,101222.09
2023-03-01T14:18:05.710Z,101217.02
2023-03-01T14:20:39.324Z,101215.36
2023-03-01T14:23:13.316Z,101212.05
2023-03-01T14:25:49.264Z,101214.27
2023-03-01T14:28:25.570Z,101210.80
2023-03-01T14:30:56.027Z,101202.95
2023-03-01T14:33:34.983Z,101197.13
2023-03-01T14:36:07.337Z,101191.27
2023-03-01T14:38:39.522Z,101189.63
2023-03-01T14:41:21.568Z,101188.34
2023-03-01T14:43:53.030Z,101182.90
2023-03-01T14:46:42.900Z,101182.77
2023-03-01T14:49:12.539Z,101183.59
2023-03-01T14:51:42.083Z,101185.95
2023-03-01T14:54:36.914Z,101187.58
2023-03-01T14:57:05.103Z,101185.52
2023-03-01T14:59:35.622Z,101181.86
2023-03-01T15:02:03.831Z,101182.82
2023-03-01T15:04:32.105Z,101187.82
2023-03-01T15:07:05.976Z,101191.17
2023-03-01T15:09:36.092Z,101192.39
2023-03-01T15:12:42.030Z,101189.91
2023-03-01T15:15:36.612Z,101188.63
2023-03-01T15:18:13.022Z,101193.31
2023-03-01T15:20:40.947Z,101186.54
2023-03-01T15:23:23.345Z,101182.52
2023-03-01T15:25:57.523Z,101182.11
2023-03-01T15:28:44.438Z,101179.30
2023-03-01T15:31:24.540Z,101177.04
2023-03-01T15:33:53.284Z,101177.84
2023-03-01T15:36:32.271Z,101177.48
2023-03-01T15:39:04.326Z,101173.44
2023-03-01T15:41:33.292Z,101178.00
2023-03-01T15:44:14.926Z,101177.44
2023-03-01T15:46:47.510Z,101178.59
2023-03-01T15:49:54.054Z,101182.09
2023-03-01T15:52:23.284Z,101179.14
2023-03-01T15:54:51.280Z,101183.77
2023-03-01T15:57:19.152Z,101182.83
2023-03-01T15:59:47.028Z,101181.89
2023-03-01T16:02:15.057Z,101184.80
2023-03-01T16:04:43.102Z,101192.91
2023-03-01T16:07:10.927Z,101197.89
2023-03-01T16:09:38.854Z,101201.34
2023-03-01T16:12:07.444Z,101205.21
2023-03-01T16:14:35.356Z,101207.61
2023-03-01T16:17:03.291Z,101202.82
2023-03-01T16:19:31.285Z,101202.77
2023-03-01T16:21:59.056Z,101201.56
2023-03-01T16:24:27.064Z,101203.67
2023-03-01T16:26:54.976Z,101202.59
2023-03-01T16:29:22.866Z,101202.89
2023-03-01T16:31:50.999Z,101208.34
2023-03-01T16:34:19.168Z,101207.52
2023-03-01T16:36:49.679Z,101210.95
2023-03-01T16:39:17.923Z,101209.39
2023-03-01T16:41:45.742Z,101213.58
2023-03-01T16:44:13.474Z,101218.70
2023-03-01T16:46:42.751Z,101216.02
2023-03-01T16:49:10.829Z,101216.89
2023-03-01T16:51:38.695Z,101219.33
2023-03-01T16:54:06.654Z,101215.36
2023-03-01T16:56:36.739Z,101218.87
2023-03-01T16:59:06.465Z,101223.51
2023-03-01T17:01:40.427Z,101229.02
2023-03-01T17:04:12.322Z,101223.52
2023-03-01T17:06:40.486Z,101229.58
2023-03-01T17:09:08.315Z,101230.27
2023-03-01T17:11:36.798Z,101230.56
2023-03-01T17:14:04.654Z,101230.83
2023-03-01T17:16:33.195Z,101232.91
2023-03-01T17:19:01.291Z,101236.69
2023-03-01T17:21:29.660Z,101240.83
2023-03-01T17:23:59.360Z,101239.17
2023-03-01T17:26:30.935Z,101241.52
2023-03-01T17:28:59.453Z,101239.71
2023-03-01T17:31:27.665Z,101239.98
2023-03-01T17:33:58.483Z,101242.98
2023-03-01T17:36:27.556Z,101243.43
2023-03-01T17:38:55.413Z,101237.49
2023-03-01T17:41:25.277Z,101238.02
2023-03-01T17:43:53.714Z,101235.09
2023-03-01T17:46:22.336Z,101237.23
2023-03-01T17:48:50.305Z,101238.98
2023-03-01T17:51:19.190Z,101232.36
2023-03-01T17:53:47.220Z,101234.31
2023-03-01T17:56:16.414Z,101229.66
2023-03-01T17:58:46.751Z,101228.27
2023-03-01T18:01:17.372Z,101233.21
2023-03-01T18:03:47.510Z,101233.05
2023-03-01T18:06:18.838Z,101233.56
2023-03-01T18:08:48.784Z,101236.69
2023-03-01T18:11:18.049Z,101234.11
2023-03-01T18:13:47.667Z,101235.73
2023-03-01T18:16:17.533Z,101232.34
2023-03-01T18:18:46.084Z,101231.48
2023-03-01T18:21:15.041Z,101229.89
2023-03-01T18:23:42.930Z,101227.02
2023-03-01T18:26:12.650Z,101225.14
2023-03-01T18:28:40.627Z,101223.45
2023-03-01T18:31:13.380Z,101223.92
2023-03-01T18:33:41.564Z,101223.94
2023-03-01T18:36:19.209Z,101222.17
2023-03-01T18:38:48.116Z,101224.55
2023-03-01T18:41:16.550Z,101223.66
2023-03-01T18:43:44.779Z,101224.66
2023-03-01T18:46:14.214Z,101222.81
2023-03-01T18:48:42.145Z,101222.30
2023-03-01T18:51:15.849Z,101223.11
2023-03-01T18:53:44.082Z,101220.02
2023-03-01T18:56:15.416Z,101217.00
2023-03-01T18:58:44.007Z,101214.89
2023-03-01T19:01:18.098Z,101210.84
2023-03-01T19:03:46.548Z,101215.64
2023-03-01T19:06:15.119Z,101211.39
2023-03-01T19:08:44.435Z,101211.81
2023-03-01T19:11:14.323Z,101213.09
2023-03-01T19:13:42.590Z,101206.63
2023-03-01T19:16:11.696Z,101205.83
2023-03-01T19:18:41.196Z,101209.11
2023-03-01T19:21:11.151Z,101213.62
2023-03-01T19:23:41.383Z,101211.38
2023-03-01T19:26:11.837Z,101208.20
2023-03-01T19:28:40.785Z,101211.16
2023-03-01T19:31:20.977Z,101203.67
2023-03-01T19:33:57.038Z,101205.18
2023-03-01T19:36:35.295Z,101204.67
2023-03-01T19:39:05.690Z,101194.63
2023-03-01T19:41:34.052Z,101200.11
2023-03-01T19:44:04.658Z,101198.59
2023-03-01T19:46:34.286Z,101200.11
2023-03-01T19:49:03.506Z,101202.52
2023-03-01T19:51:38.872Z,101206.10
2023-03-01T19:54:09.863Z,101202.18
2023-03-01T19:56:38.247Z,101200.65
2023-03-01T19:59:07.080Z,101204.87
2023-03-01T20:01:35.932Z,101208.66
2023-03-01T20:04:05.247Z,101214.77
2023-03-01T20:06:34.036Z,101219.41
2023-03-01T20:09:15.335Z,101216.33
2023-03-01T20:11:49.001Z,101218.14
2023-03-01T20:14:17.121Z,101220.91
2023-03-01T20:16:44.979Z,101222.08
2023-03-01T20:19:12.835Z,101225.88
2023-03-01T20:21:40.787Z,101222.42
2023-03-01T20:24:08.877Z,101218.83
2023-03-01T20:26:37.203Z,101216.92
2023-03-01T20:29:10.149Z,101207.77
2023-03-01T20:31:39.810Z,101205.27
2023-03-01T20:34:07.822Z,101199.23
2023-03-01T20:36:38.228Z,101204.59
2023-03-01T20:39:06.797Z,101203.70
2023-03-01T20:41:34.785Z,101206.57
2023-03-01T20:44:04.442Z,101207.48
2023-03-01T20:46:34.215Z,101201.97
2023-03-01T20:49:02.909Z,101205.95
2023-03-01T20:51:30.901Z,101206.19
2023-03-01T20:54:00.099Z,101206.16
2023-03-01T20:56:28.332Z,101205.30
2023-03-01T20:59:09.571Z,101204.90
2023-03-01T21:01:39.412Z,101210.65
2023-03-01T21:04:07.658Z,101211.30
2023-03-01T21:06:36.285Z,101212.50
2023-03-01T21:09:05.182Z,101212.11
2023-03-01T21:11:33.255Z,101211.94
2023-03-01T21:14:01.684Z,101210.92
2023-03-01T21:16:29.895Z,101207.83
2023-03-01T21:19:01.676Z,101206.13
2023-03-01T21:21:29.543Z,101206.31
2023-03-01T21:23:57.335Z,101206.96
2023-03-01T21:26:26.512Z,101211.98
2023-03-01T21:29:01.448Z,101211.09
2023-03-01T21:31:33.911Z,101208.41
2023-03-01T21:34:06.311Z,101203.52
2023-03-01T21:36:35.212Z,101203.23
2023-03-01T21:39:05.302Z,101198.67
2023-03-01T21:41:35.788Z,101192.84
2023-03-01T21:44:04.806Z,101190.13
2023-03-01T21:46:36.500Z,101193.91
2023-03-01T21:49:05.778Z,101192.09
2023-03-01T21:51:33.558Z,101185.63
2023-03-01T21:54:01.541Z,101180.67
2023-03-01T21:56:32.115Z,101176.82
2023-03-01T21:59:00.926Z,101181.08
2023-03-01T22:01:29.407Z,101178.98
2023-03-01T22:03:59.278Z,101176.11
2023-03-01T22:06:29.802Z,101175.58
2023-03-01T22:09:05.890Z,101174.37
2023-03-01T22:11:36.561Z,101177.41
2023-03-01T22:14:04.944Z,101176.33
2023-03-01T22:16:35.885Z,101177.83
2023-03-01T22:19:05.507Z,101184.39
2023-03-01T22:21:34.371Z,101180.77
2023-03-01T22:24:02.293Z,101179.80
2023-03-01T22:26:33.580Z,101180.95
2023-03-01T22:29:03.926Z,101180.80
2023-03-01T22:31:32.062Z,101185.08
2023-03-01T22:34:00.359Z,101181.82
2023-03-01T22:36:28.606Z,101185.36
2023-03-01T22:39:00.541Z,101177.83
2023-03-01T22:41:33.998Z,101173.36
2023-03-01T22:44:02.333Z,101169.83
2023-03-01T22:46:30.941Z,101166.87
2023-03-01T22:49:01.763Z,101165.41
2023-03-01T22:51:34.666Z,101161.01
2023-03-01T22:54:02.944Z,101161.83
2023-03-01T22:56:33.141Z,101162.33
2023-03-01T22:59:06.475Z,101162.31
2023-03-01T23:01:35.278Z,101160.00
2023-03-01T23:04:03.477Z,101163.33
2023-03-01T23:06:31.771Z,101163.20
2023-03-01T23:09:02.152Z,101167.06
2023-03-01T23:11:30.156Z,101169.79
2023-03-01T23:13:58.843Z,101166.74
2023-03-01T23:16:27.323Z,101169.12
2023-03-01T23:18:59.217Z,101173.44
2023-03-01T23:21:27.408Z,101169.44
2023-03-01T23:23:56.358Z,101171.23
2023-03-01T23:26:28.890Z,101169.40
2023-03-01T23:28:57.687Z,101167.51
2023-03-01T23:31:30.294Z,101168.55
2023-03-01T23:33:58.154Z,101167.73
2023-03-01T23:36:28.233Z,101163.70
2023-03-01T23:38:58.930Z,101166.19
2023-03-01T23:41:30.058Z,101165.94
2023-03-01T23:43:59.807Z,101163.96
2023-03-01T23:46:30.533Z,101160.27
2023-03-01T23:48:59.164Z,101165.89
2023-03-01T23:51:27.062Z,101170.76
2023-03-01T23:53:59.250Z,101172.25
2023-03-01T23:56:31.308Z,101166.55
2023-03-01T23:59:02.039Z,101171.58
